Time;durP1;ratioP1;P1;durP2;ratioP2;P2;SDS_P1;SDS_P2;PMS_P1;PMS_P2;Temp;Humidity;BMP_temperature;BMP_pressure;BME280_temperature;BME280_humidity;BME280_pressure;Samples;Min_cycle;Max_cycle;Signal;HPM_P1;HPM_P2
2023/05/18 00:01:02;;;;;;;;;;;6.80;99.90;;;;;;5051820;28;20432;-61
2023/05/18 00:03:28;;;;;;;;;;;6.80;99.90;;;;;;5052021;28;19990;-60
2023/05/18 00:05:56;;;;;;;;;;;6.80;99.90;;;;;;5052540;28;20266;-60
2023/05/18 00:08:22;;;;;;;;;;;6.70;99.90;;;;;;5051428;28;20338;-60
2023/05/18 00:10:47;;;;;;;;;;;6.70;99.90;;;;;;5052322;28;20007;-61
2023/05/18 00:13:13;;;;;;;;;;;6.70;99.90;;;;;;5049977;28;20423;-59
2023/05/18 00:15:38;;;;;;;;;;;6.70;99.90;;;;;;5052217;28;20420;-60
2023/05/18 00:18:04;;;;;;;;;;;6.70;99.90;;;;;;5048951;28;19916;-60
2023/05/18 00:20:30;;;;;;;;;;;6.70;99.90;;;;;;5050059;28;20140;-61
2023/05/18 00:22:55;;;;;;;;;;;6.60;99.90;;;;;;5052304;28;19921;-60
2023/05/18 00:25:21;;;;;;;;;;;6.70;99.90;;;;;;5051539;28;20406;-60
2023/05/18 00:27:48;;;;;;;;;;;6.60;99.90;;;;;;5049853;28;20369;-60
2023/05/18 00:30:14;;;;;;;;;;;6.60;99.90;;;;;;5050114;28;19943;-60
2023/05/18 00:32:40;;;;;;;;;;;6.60;99.90;;;;;;5050760;28;19916;-60
2023/05/18 00:35:06;;;;;;;;;;;6.60;99.90;;;;;;5057150;28;19917;-60
2023/05/18 00:37:31;;;;;;;;;;;6.60;99.90;;;;;;5055779;28;19920;-59
2023/05/18 00:39:57;;;;;;;;;;;6.60;99.90;;;;;;5051290;28;19934;-59
2023/05/18 00:42:23;;;;;;;;;;;6.60;99.90;;;;;;5048192;28;20019;-56
2023/05/18 00:44:49;;;;;;;;;;;6.60;99.90;;;;;;5051697;28;19999;-57
2023/05/18 00:47:17;;;;;;;;;;;6.60;99.90;;;;;;5050575;28;20333;-60
2023/05/18 00:49:42;;;;;;;;;;;6.60;99.90;;;;;;5049524;28;19944;-59
2023/05/18 00:52:08;;;;;;;;;;;6.50;99.90;;;;;;5050861;28;19917;-56
2023/05/18 00:54:34;;;;;;;;;;;6.60;99.90;;;;;;5050742;28;20349;-58
2023/05/18 00:57:02;;;;;;;;;;;6.50;99.90;;;;;;5050093;28;19935;-61
2023/05/18 00:59:29;;;;;;;;;;;6.50;99.90;;;;;;5051087;28;19917;-57
2023/05/18 01:01:55;;;;;;;;;;;6.50;99.90;;;;;;5051055;28;19917;-59
2023/05/18 01:04:20;;;;;;;;;;;6.50;99.90;;;;;;5051133;28;19924;-57
2023/05/18 01:06:46;;;;;;;;;;;6.50;99.90;;;;;;5051246;28;19924;-60
2023/05/18 01:09:12;;;;;;;;;;;6.40;99.90;;;;;;5048338;28;19917;-60
2023/05/18 01:11:51;;;;;;;;;;;6.40;99.90;;;;;;5050802;28;20700;-59
2023/05/18 01:14:48;;;;;;;;;;;6.40;99.90;;;;;;5050590;28;19979;-57
2023/05/18 01:17:21;;;;;;;;;;;6.30;99.90;;;;;;5017135;28;19920;-58
2023/05/18 01:19:58;;;;;;;;;;;6.30;99.90;;;;;;5049382;28;19925;-57
2023/05/18 01:22:46;;;;;;;;;;;6.30;99.90;;;;;;5051077;28;19923;-60
2023/05/18 01:25:18;;;;;;;;;;;6.30;99.90;;;;;;5048909;28;19917;-59
2023/05/18 01:27:45;;;;;;;;;;;6.30;99.90;;;;;;5048865;28;19967;-57
2023/05/18 01:30:14;;;;;;;;;;;6.20;99.90;;;;;;5051109;28;19916;-60
2023/05/18 01:32:41;;;;;;;;;;;6.10;99.90;;;;;;5050393;28;19931;-59
2023/05/18 01:35:07;;;;;;;;;;;6.10;99.90;;;;;;5049934;28;19923;-60
2023/05/18 01:37:32;;;;;;;;;;;6.10;99.90;;;;;;5048996;28;19967;-61
2023/05/18 01:39:58;;;;;;;;;;;6.10;99.90;;;;;;5048012;28;19978;-60
2023/05/18 01:42:26;;;;;;;;;;;6.10;99.90;;;;;;5049964;28;19920;-57
2023/05/18 01:44:57;;;;;;;;;;;6.10;99.90;;;;;;5048369;28;19926;-57
2023/05/18 01:47:23;;;;;;;;;;;6.00;99.90;;;;;;5049349;28;19921;-60
2023/05/18 01:49:52;;;;;;;;;;;6.00;99.90;;;;;;5049638;28;19985;-58
2023/05/18 01:52:19;;;;;;;;;;;6.00;99.90;;;;;;5049293;28;19916;-57
2023/05/18 01:54:48;;;;;;;;;;;6.00;99.90;;;;;;5050081;28;19933;-59
2023/05/18 01:57:15;;;;;;;;;;;6.00;99.90;;;;;;5048556;28;19928;-60
2023/05/18 01:59:41;;;;;;;;;;;6.00;99.90;;;;;;5046667;28;20357;-59
2023/05/18 02:02:07;;;;;;;;;;;6.00;99.90;;;;;;5049955;28;19924;-59
2023/05/18 02:04:34;;;;;;;;;;;5.90;99.90;;;;;;5050206;28;19920;-57
2023/05/18 02:06:59;;;;;;;;;;;5.90;99.90;;;;;;5049668;28;19970;-59
2023/05/18 02:09:25;;;;;;;;;;;5.90;99.90;;;;;;5048900;28;19999;-60
2023/05/18 02:11:50;;;;;;;;;;;5.90;99.90;;;;;;5047163;28;19917;-61
2023/05/18 02:14:16;;;;;;;;;;;5.90;99.90;;;;;;5046507;28;19985;-59
2023/05/18 02:16:46;;;;;;;;;;;5.90;99.90;;;;;;5048453;28;20426;-59
2023/05/18 02:19:13;;;;;;;;;;;5.80;99.90;;;;;;5047853;28;19917;-60
2023/05/18 02:21:40;;;;;;;;;;;5.90;99.90;;;;;;5047700;28;19917;-60
2023/05/18 02:24:06;;;;;;;;;;;5.80;99.90;;;;;;5047553;28;19932;-60
2023/05/18 02:26:31;;;;;;;;;;;5.80;99.90;;;;;;5049808;28;19920;-60
2023/05/18 02:28:57;;;;;;;;;;;5.80;99.90;;;;;;5049444;28;20305;-59
2023/05/18 02:31:22;;;;;;;;;;;5.80;99.90;;;;;;5047161;28;19920;-58
2023/05/18 02:33:48;;;;;;;;;;;5.80;99.90;;;;;;5049352;28;19920;-59
2023/05/18 02:36:13;;;;;;;;;;;5.70;99.90;;;;;;5049522;28;20416;-61
2023/05/18 02:38:41;;;;;;;;;;;5.70;99.90;;;;;;5048560;28;19917;-60
2023/05/18 02:41:06;;;;;;;;;;;5.60;99.90;;;;;;5049303;28;19978;-61
2023/05/18 02:43:32;;;;;;;;;;;5.50;99.90;;;;;;5046582;28;20023;-60
2023/05/18 02:45:58;;;;;;;;;;;5.50;99.90;;;;;;5049084;28;19916;-59
2023/05/18 02:48:23;;;;;;;;;;;5.50;99.90;;;;;;5047271;28;20293;-58
2023/05/18 02:50:49;;;;;;;;;;;5.50;99.90;;;;;;5049280;28;20209;-59
2023/05/18 02:53:14;;;;;;;;;;;5.50;99.90;;;;;;5048083;28;19931;-60
2023/05/18 02:55:40;;;;;;;;;;;5.50;99.90;;;;;;5048997;28;19975;-60
2023/05/18 02:58:06;;;;;;;;;;;5.40;99.90;;;;;;5048567;28;20015;-56
2023/05/18 03:00:32;;;;;;;;;;;5.30;99.90;;;;;;5049511;28;19999;-57
2023/05/18 03:02:59;;;;;;;;;;;5.30;99.90;;;;;;5049240;28;20354;-58
2023/05/18 03:05:25;;;;;;;;;;;5.30;99.90;;;;;;5047509;28;20007;-60
2023/05/18 03:07:51;;;;;;;;;;;5.30;99.90;;;;;;5045644;28;20004;-58
2023/05/18 03:10:17;;;;;;;;;;;5.40;99.90;;;;;;5047140;28;20003;-59
2023/05/18 03:12:42;;;;;;;;;;;5.40;99.90;;;;;;5048477;28;20433;-59
2023/05/18 03:15:08;;;;;;;;;;;5.40;99.90;;;;;;5047320;28;20015;-59
2023/05/18 03:17:34;;;;;;;;;;;5.40;99.90;;;;;;5050523;28;20281;-59
2023/05/18 03:20:00;;;;;;;;;;;5.30;99.90;;;;;;5052392;28;19939;-59
2023/05/18 03:22:25;;;;;;;;;;;5.20;99.90;;;;;;5053270;28;19917;-59
2023/05/18 03:24:54;;;;;;;;;;;5.20;99.90;;;;;;5047953;28;20011;-58
2023/05/18 03:27:24;;;;;;;;;;;5.20;99.90;;;;;;5048037;28;19947;-59
2023/05/18 03:29:53;;;;;;;;;;;5.10;99.90;;;;;;5048120;28;19916;-59
2023/05/18 03:32:18;;;;;;;;;;;5.10;99.90;;;;;;5048071;28;20432;-60
2023/05/18 03:34:46;;;;;;;;;;;5.00;99.90;;;;;;5049148;28;20013;-58
2023/05/18 03:37:12;;;;;;;;;;;5.00;99.90;;;;;;5047289;28;19928;-60
2023/05/18 03:39:38;;;;;;;;;;;5.00;99.90;;;;;;5047210;28;20401;-60
2023/05/18 03:42:04;;;;;;;;;;;5.00;99.90;;;;;;5048365;28;19917;-59
2023/05/18 03:44:29;;;;;;;;;;;5.00;99.90;;;;;;5047433;28;19916;-58
2023/05/18 03:46:55;;;;;;;;;;;5.00;99.90;;;;;;5047398;28;20433;-59
2023/05/18 03:49:20;;;;;;;;;;;4.90;99.90;;;;;;5045256;28;20273;-60
2023/05/18 03:51:46;;;;;;;;;;;4.90;99.90;;;;;;5043938;28;19925;-60
2023/05/18 03:54:11;;;;;;;;;;;4.90;99.90;;;;;;5048411;28;20305;-59
2023/05/18 03:56:37;;;;;;;;;;;4.90;99.90;;;;;;5047982;28;19921;-60
2023/05/18 03:59:03;;;;;;;;;;;4.90;99.90;;;;;;5047822;28;19926;-61
2023/05/18 04:01:31;;;;;;;;;;;4.90;99.90;;;;;;5044470;28;19916;-59
2023/05/18 04:03:57;;;;;;;;;;;4.90;99.90;;;;;;5045340;28;19975;-60
2023/05/18 04:06:24;;;;;;;;;;;4.90;99.90;;;;;;5048001;28;19928;-60
2023/05/18 04:08:53;;;;;;;;;;;4.90;99.90;;;;;;5044261;28;21393;-60
2023/05/18 04:11:20;;;;;;;;;;;4.90;99.90;;;;;;5046335;28;19956;-60
2023/05/18 04:13:46;;;;;;;;;;;4.90;99.90;;;;;;5045940;28;19996;-59
2023/05/18 04:16:12;;;;;;;;;;;4.90;99.90;;;;;;5048057;28;20007;-60
2023/05/18 04:18:38;;;;;;;;;;;5.00;99.90;;;;;;5029021;28;19982;-60
2023/05/18 04:21:05;;;;;;;;;;;5.00;99.90;;;;;;5047201;28;19916;-60
2023/05/18 04:23:32;;;;;;;;;;;5.10;99.90;;;;;;5046560;28;19951;-60
2023/05/18 04:25:58;;;;;;;;;;;5.10;99.90;;;;;;5047853;28;19923;-60
2023/05/18 04:28:23;;;;;;;;;;;5.20;99.90;;;;;;5047031;28;19920;-60
2023/05/18 04:30:50;;;;;;;;;;;5.20;99.90;;;;;;5048419;28;20378;-60
2023/05/18 04:33:16;;;;;;;;;;;5.30;99.90;;;;;;5048014;28;20020;-60
2023/05/18 04:35:42;;;;;;;;;;;5.30;99.90;;;;;;5048505;28;19921;-61
2023/05/18 04:38:07;;;;;;;;;;;5.40;99.90;;;;;;5047019;28;19973;-60
2023/05/18 04:40:33;;;;;;;;;;;5.40;99.90;;;;;;5048517;28;19940;-60
2023/05/18 04:42:59;;;;;;;;;;;5.50;99.90;;;;;;5048408;28;20012;-60
2023/05/18 04:45:25;;;;;;;;;;;5.50;99.90;;;;;;5050281;28;20373;-60
2023/05/18 04:47:53;;;;;;;;;;;5.60;99.90;;;;;;5050625;28;19923;-60
2023/05/18 04:50:19;;;;;;;;;;;5.60;99.90;;;;;;5051770;28;19944;-60
2023/05/18 04:52:48;;;;;;;;;;;5.70;99.90;;;;;;5051390;28;19996;-59
2023/05/18 04:55:21;;;;;;;;;;;5.80;99.90;;;;;;5050605;28;19917;-60
2023/05/18 04:57:48;;;;;;;;;;;5.80;99.90;;;;;;5047412;28;20348;-60
2023/05/18 05:00:13;;;;;;;;;;;5.90;99.90;;;;;;5048926;28;19928;-60
2023/05/18 05:02:39;;;;;;;;;;;6.00;99.90;;;;;;5049962;28;19920;-60
2023/05/18 05:05:05;;;;;;;;;;;6.10;99.90;;;;;;5051421;28;20012;-60
2023/05/18 05:07:31;;;;;;;;;;;6.10;99.90;;;;;;5050573;28;19940;-60
2023/05/18 05:09:56;;;;;;;;;;;6.20;99.90;;;;;;5050692;28;19925;-62
2023/05/18 05:12:22;;;;;;;;;;;6.20;99.90;;;;;;5051342;28;19920;-60
2023/05/18 05:14:47;;;;;;;;;;;6.20;99.90;;;;;;5050554;28;20010;-60
2023/05/18 05:17:13;;;;;;;;;;;6.20;99.90;;;;;;5048447;28;19928;-60
2023/05/18 05:19:38;;;;;;;;;;;6.30;99.90;;;;;;5047502;28;20309;-60
2023/05/18 05:22:04;;;;;;;;;;;6.30;99.90;;;;;;5050892;28;19917;-60
2023/05/18 05:24:29;;;;;;;;;;;6.40;99.90;;;;;;5050102;28;19920;-60
2023/05/18 05:26:55;;;;;;;;;;;6.40;99.90;;;;;;5049985;28;20423;-60
2023/05/18 05:29:21;;;;;;;;;;;6.50;99.90;;;;;;5049539;28;20043;-59
2023/05/18 05:31:46;;;;;;;;;;;6.60;99.90;;;;;;5049412;28;19917;-60
2023/05/18 05:34:12;;;;;;;;;;;6.60;99.90;;;;;;5050581;28;19917;-60
2023/05/18 05:36:38;;;;;;;;;;;6.70;99.90;;;;;;5049476;28;19939;-60
2023/05/18 05:39:03;;;;;;;;;;;6.70;99.90;;;;;;5049602;28;19916;-60
2023/05/18 05:41:29;;;;;;;;;;;6.80;99.90;;;;;;5048992;28;19917;-60
2023/05/18 05:43:55;;;;;;;;;;;7.00;99.90;;;;;;5049598;28;19927;-59
2023/05/18 05:46:21;;;;;;;;;;;7.00;99.90;;;;;;5050761;28;19916;-60
2023/05/18 05:48:46;;;;;;;;;;;7.20;99.90;;;;;;5049344;28;19924;-60
2023/05/18 05:51:12;;;;;;;;;;;7.30;99.90;;;;;;5048812;28;19927;-60
2023/05/18 05:53:37;;;;;;;;;;;7.40;99.90;;;;;;5048446;28;19951;-60
2023/05/18 05:56:03;;;;;;;;;;;7.50;99.90;;;;;;5047858;28;20356;-61
2023/05/18 05:58:28;;;;;;;;;;;7.60;99.90;;;;;;5048157;28;19928;-60
2023/05/18 06:00:54;;;;;;;;;;;7.70;99.90;;;;;;5053834;28;19931;-60
2023/05/18 06:03:20;;;;;;;;;;;7.80;99.90;;;;;;5055442;28;19924;-59
2023/05/18 06:05:45;;;;;;;;;;;7.90;99.90;;;;;;5056045;28;19916;-59
2023/05/18 06:08:11;;;;;;;;;;;8.00;99.90;;;;;;5051071;28;20394;-60
2023/05/18 06:10:38;;;;;;;;;;;8.10;99.90;;;;;;5032162;28;19916;-61
2023/05/18 06:13:03;;;;;;;;;;;8.20;99.90;;;;;;5048810;28;20504;-60
2023/05/18 06:15:29;;;;;;;;;;;8.30;99.90;;;;;;5049702;28;19916;-60
2023/05/18 06:17:54;;;;;;;;;;;8.30;99.90;;;;;;5046523;28;19932;-60
2023/05/18 06:20:20;;;;;;;;;;;8.40;99.90;;;;;;5048505;28;19991;-60
2023/05/18 06:22:45;;;;;;;;;;;8.50;99.90;;;;;;5048948;28;19963;-60
2023/05/18 06:25:11;;;;;;;;;;;8.60;99.90;;;;;;5048549;28;19920;-60
2023/05/18 06:27:37;;;;;;;;;;;8.70;99.90;;;;;;5046715;28;20374;-60
2023/05/18 06:30:04;;;;;;;;;;;8.70;99.90;;;;;;5050323;28;19966;-60
2023/05/18 06:32:29;;;;;;;;;;;8.80;99.90;;;;;;5050040;28;19975;-61
2023/05/18 06:34:55;;;;;;;;;;;8.90;99.90;;;;;;5049139;28;19952;-61
2023/05/18 06:37:20;;;;;;;;;;;9.00;99.90;;;;;;5051108;28;19967;-61
2023/05/18 06:39:46;;;;;;;;;;;9.10;99.90;;;;;;5046168;28;19916;-60
2023/05/18 06:42:11;;;;;;;;;;;9.20;99.90;;;;;;5049205;28;20007;-60
2023/05/18 06:44:37;;;;;;;;;;;9.30;99.90;;;;;;5048291;28;19929;-61
2023/05/18 06:47:03;;;;;;;;;;;9.50;99.90;;;;;;5048279;28;20176;-60
2023/05/18 06:49:28;;;;;;;;;;;9.50;99.90;;;;;;5047615;28;19939;-61
2023/05/18 06:51:54;;;;;;;;;;;9.60;99.90;;;;;;5047755;28;20375;-61
2023/05/18 06:54:19;;;;;;;;;;;9.60;99.90;;;;;;5047003;28;19970;-61
2023/05/18 06:56:45;;;;;;;;;;;9.60;99.90;;;;;;5048757;28;19920;-61
2023/05/18 06:59:11;;;;;;;;;;;9.70;99.90;;;;;;5048898;28;19974;-61
2023/05/18 07:01:36;;;;;;;;;;;9.80;99.90;;;;;;5049484;28;19964;-61
2023/05/18 07:04:02;;;;;;;;;;;9.80;99.90;;;;;;5054600;28;20598;-62
2023/05/18 07:06:28;;;;;;;;;;;9.90;99.90;;;;;;5051019;28;19928;-62
2023/05/18 07:08:55;;;;;;;;;;;9.90;99.90;;;;;;5048778;28;20408;-61
2023/05/18 07:11:20;;;;;;;;;;;9.90;99.90;;;;;;5051308;28;20015;-61
2023/05/18 07:13:46;;;;;;;;;;;9.90;99.90;;;;;;5053253;28;20424;-61
2023/05/18 07:16:11;;;;;;;;;;;9.90;99.90;;;;;;5052893;28;19978;-60
2023/05/18 07:18:37;;;;;;;;;;;10.00;99.90;;;;;;5057593;28;19959;-61
2023/05/18 07:21:03;;;;;;;;;;;9.90;99.90;;;;;;5055530;28;19916;-61
2023/05/18 07:23:29;;;;;;;;;;;10.00;99.90;;;;;;5063835;28;20128;-60
2023/05/18 07:25:56;;;;;;;;;;;9.90;99.90;;;;;;5051394;28;19923;-60
2023/05/18 07:28:21;;;;;;;;;;;10.00;99.90;;;;;;5050520;28;19929;-61
2023/05/18 07:30:47;;;;;;;;;;;10.10;99.90;;;;;;5064279;28;20012;-61
2023/05/18 07:33:12;;;;;;;;;;;10.20;99.90;;;;;;5065711;28;19983;-61
2023/05/18 07:35:38;;;;;;;;;;;10.20;99.30;;;;;;5063623;28;19923;-61
2023/05/18 07:38:03;;;;;;;;;;;10.30;99.50;;;;;;5063562;28;19920;-61
2023/05/18 07:40:29;;;;;;;;;;;10.20;99.00;;;;;;5065796;28;20319;-61
2023/05/18 07:42:54;;;;;;;;;;;10.30;99.30;;;;;;5059861;28;19924;-61
2023/05/18 07:45:20;;;;;;;;;;;10.30;99.10;;;;;;5051691;28;20385;-61
2023/05/18 07:47:46;;;;;;;;;;;10.30;98.60;;;;;;5047755;28;19916;-61
2023/05/18 07:50:11;;;;;;;;;;;10.30;98.30;;;;;;5048965;28;19917;-61
2023/05/18 07:52:37;;;;;;;;;;;10.30;98.40;;;;;;5048456;28;20287;-60
2023/05/18 07:55:03;;;;;;;;;;;10.30;98.50;;;;;;5045740;28;19931;-60
2023/05/18 07:57:29;;;;;;;;;;;10.40;98.30;;;;;;5045419;28;20262;-61
2023/05/18 07:59:55;;;;;;;;;;;10.40;98.00;;;;;;5045979;28;20385;-56
2023/05/18 08:02:20;;;;;;;;;;;10.50;98.00;;;;;;5048684;28;19916;-61
2023/05/18 08:04:46;;;;;;;;;;;10.60;98.30;;;;;;5048044;28;20313;-60
2023/05/18 08:07:12;;;;;;;;;;;10.70;97.70;;;;;;5048395;28;19925;-60
2023/05/18 08:09:38;;;;;;;;;;;10.70;97.50;;;;;;5047562;28;19917;-59
2023/05/18 08:12:04;;;;;;;;;;;10.70;97.80;;;;;;5047117;28;19920;-59
2023/05/18 08:14:30;;;;;;;;;;;10.80;97.80;;;;;;5046695;28;19917;-61
2023/05/18 08:16:55;;;;;;;;;;;10.90;97.80;;;;;;5047548;28;19921;-60
2023/05/18 08:19:21;;;;;;;;;;;11.00;97.60;;;;;;5050584;28;19974;-58
2023/05/18 08:21:46;;;;;;;;;;;11.10;97.50;;;;;;5051787;28;19917;-61
2023/05/18 08:24:12;;;;;;;;;;;11.20;97.20;;;;;;5051190;28;19925;-60
2023/05/18 08:26:37;;;;;;;;;;;11.10;97.20;;;;;;5051383;28;19917;-58
2023/05/18 08:29:09;;;;;;;;;;;11.20;96.80;;;;;;5049502;28;19960;-60
2023/05/18 08:31:38;;;;;;;;;;;11.20;97.20;;;;;;5051064;28;19923;-60
2023/05/18 08:34:04;;;;;;;;;;;11.30;97.00;;;;;;5050233;28;20357;-60
2023/05/18 08:36:30;;;;;;;;;;;11.40;97.40;;;;;;5050289;28;19962;-59
2023/05/18 08:38:55;;;;;;;;;;;11.70;98.00;;;;;;5051270;28;19917;-60
2023/05/18 08:41:47;;;;;;;;;;;11.90;96.70;;;;;;5052438;28;19924;-60
2023/05/18 08:44:19;;;;;;;;;;;12.10;96.80;;;;;;5052912;28;19951;-57
2023/05/18 08:46:47;;;;;;;;;;;12.30;96.10;;;;;;5056802;28;19927;-60
2023/05/18 08:49:15;;;;;;;;;;;12.40;96.50;;;;;;5052176;28;20294;-57
2023/05/18 08:51:43;;;;;;;;;;;12.40;95.60;;;;;;5050569;28;19920;-56
2023/05/18 08:54:10;;;;;;;;;;;12.40;95.20;;;;;;5049690;28;19917;-60
2023/05/18 08:56:37;;;;;;;;;;;12.20;95.20;;;;;;5051832;28;19928;-59
2023/05/18 08:59:06;;;;;;;;;;;12.20;95.20;;;;;;5051731;28;19920;-59
2023/05/18 09:01:32;;;;;;;;;;;12.30;94.70;;;;;;5051349;28;19924;-60
2023/05/18 09:03:58;;;;;;;;;;;12.30;95.50;;;;;;5052048;28;19974;-59
2023/05/18 09:06:25;;;;;;;;;;;12.50;95.20;;;;;;5050473;28;19916;-55
2023/05/18 09:08:51;;;;;;;;;;;12.50;94.80;;;;;;5050196;28;19923;-60
2023/05/18 09:11:18;;;;;;;;;;;12.60;95.00;;;;;;5051176;28;19924;-60
2023/05/18 09:13:43;;;;;;;;;;;12.60;94.50;;;;;;5049372;28;19921;-60
2023/05/18 09:16:09;;;;;;;;;;;12.60;94.60;;;;;;5050672;28;19924;-61
2023/05/18 09:18:34;;;;;;;;;;;12.70;94.80;;;;;;5050044;28;20344;-60
2023/05/18 09:21:00;;;;;;;;;;;12.80;94.90;;;;;;5051076;28;19921;-59
2023/05/18 09:23:26;;;;;;;;;;;13.00;94.60;;;;;;5050323;28;19948;-59
2023/05/18 09:25:52;;;;;;;;;;;13.20;94.60;;;;;;5048497;28;19917;-59
2023/05/18 09:28:24;;;;;;;;;;;13.20;94.30;;;;;;5048717;28;19959;-59
2023/05/18 09:30:52;;;;;;;;;;;13.30;94.10;;;;;;5048351;28;20301;-59
2023/05/18 09:33:20;;;;;;;;;;;13.30;94.10;;;;;;5050569;28;19916;-60
2023/05/18 09:35:46;;;;;;;;;;;13.30;93.80;;;;;;5050620;28;19924;-61
2023/05/18 09:38:14;;;;;;;;;;;13.30;93.50;;;;;;5049418;28;19920;-61
2023/05/18 09:40:43;;;;;;;;;;;13.30;93.90;;;;;;5050877;28;19966;-61
2023/05/18 09:43:08;;;;;;;;;;;13.40;93.40;;;;;;5049975;28;20014;-60
2023/05/18 09:45:37;;;;;;;;;;;13.50;93.60;;;;;;5050117;28;20007;-61
2023/05/18 09:48:06;;;;;;;;;;;13.50;94.00;;;;;;5049284;28;19995;-61
2023/05/18 09:50:31;;;;;;;;;;;13.60;93.70;;;;;;5047299;28;19960;-60
2023/05/18 09:52:58;;;;;;;;;;;13.60;93.20;;;;;;5049594;28;19964;-61
2023/05/18 09:55:24;;;;;;;;;;;13.50;93.20;;;;;;5049440;28;19936;-60
2023/05/18 09:57:49;;;;;;;;;;;13.60;93.80;;;;;;5048371;28;20297;-61
2023/05/18 10:00:17;;;;;;;;;;;13.80;93.50;;;;;;5048552;28;19927;-60
2023/05/18 10:02:47;;;;;;;;;;;13.80;92.40;;;;;;5049240;28;19921;-60
2023/05/18 10:05:19;;;;;;;;;;;14.00;92.90;;;;;;5048286;28;20341;-58
2023/05/18 10:07:45;;;;;;;;;;;14.00;92.40;;;;;;5049212;28;19927;-60
2023/05/18 10:10:12;;;;;;;;;;;13.90;92.20;;;;;;5052888;28;20003;-62
2023/05/18 10:12:39;;;;;;;;;;;13.90;92.70;;;;;;5059291;28;19909;-61
2023/05/18 10:15:08;;;;;;;;;;;14.00;93.20;;;;;;5054085;28;19961;-62
2023/05/18 10:17:36;;;;;;;;;;;14.10;92.30;;;;;;5062979;28;20316;-63
2023/05/18 10:20:04;;;;;;;;;;;14.20;92.00;;;;;;5042305;28;19916;-62
2023/05/18 10:22:33;;;;;;;;;;;14.10;92.00;;;;;;5054409;28;19921;-62
2023/05/18 10:25:00;;;;;;;;;;;14.20;91.70;;;;;;5058980;28;19927;-62
2023/05/18 10:27:26;;;;;;;;;;;14.20;91.30;;;;;;5053843;28;19920;-62
2023/05/18 10:29:53;;;;;;;;;;;14.20;91.80;;;;;;5053056;28;20350;-62
2023/05/18 10:32:19;;;;;;;;;;;14.40;92.20;;;;;;5057525;28;19996;-63
2023/05/18 10:34:45;;;;;;;;;;;14.60;91.70;;;;;;5060989;28;19923;-62
2023/05/18 10:37:12;;;;;;;;;;;14.60;91.20;;;;;;5070033;28;19924;-63
2023/05/18 10:39:39;;;;;;;;;;;14.70;91.20;;;;;;5067134;28;20181;-63
2023/05/18 10:42:07;;;;;;;;;;;14.80;91.60;;;;;;5060293;28;19920;-62
2023/05/18 10:44:34;;;;;;;;;;;15.00;91.70;;;;;;5050615;28;20377;-62
2023/05/18 10:47:00;;;;;;;;;;;15.00;91.80;;;;;;5050329;28;19953;-60
2023/05/18 10:49:26;;;;;;;;;;;15.10;90.90;;;;;;5047937;28;19959;-60
2023/05/18 10:51:53;;;;;;;;;;;15.10;90.10;;;;;;5049735;28;19970;-59
2023/05/18 10:54:19;;;;;;;;;;;15.10;89.90;;;;;;5048856;28;19971;-60
2023/05/18 10:56:47;;;;;;;;;;;15.10;89.70;;;;;;5049732;28;19921;-60
2023/05/18 10:59:12;;;;;;;;;;;15.20;89.50;;;;;;5050190;28;19916;-60
2023/05/18 11:01:40;;;;;;;;;;;15.20;89.30;;;;;;5052581;28;20332;-59
2023/05/18 11:04:05;;;;;;;;;;;15.20;90.10;;;;;;5050790;28;19917;-60
2023/05/18 11:06:34;;;;;;;;;;;15.20;89.90;;;;;;5065710;28;19916;-59
2023/05/18 11:09:00;;;;;;;;;;;15.30;90.00;;;;;;5050429;28;19973;-61
2023/05/18 11:11:28;;;;;;;;;;;15.40;90.60;;;;;;5049661;28;19963;-60
2023/05/18 11:13:59;;;;;;;;;;;15.40;90.40;;;;;;5047881;28;20011;-61
2023/05/18 11:16:31;;;;;;;;;;;15.50;90.10;;;;;;5049850;28;19921;-58
2023/05/18 11:19:03;;;;;;;;;;;15.50;87.90;;;;;;5056297;28;19924;-59
2023/05/18 11:21:31;;;;;;;;;;;15.40;88.50;;;;;;5054272;28;20006;-56
2023/05/18 11:24:15;;;;;;;;;;;15.40;89.80;;;;;;5051297;28;20274;-59
2023/05/18 11:26:41;;;;;;;;;;;15.50;90.60;;;;;;5050148;28;20013;-60
2023/05/18 11:29:23;;;;;;;;;;;15.70;88.80;;;;;;5049241;28;19952;-59
2023/05/18 11:31:51;;;;;;;;;;;15.70;89.90;;;;;;5048896;28;19932;-58
2023/05/18 11:34:35;;;;;;;;;;;15.80;88.20;;;;;;5044553;28;19932;-58
2023/05/18 11:37:01;;;;;;;;;;;15.90;88.10;;;;;;5048870;28;19998;-59
2023/05/18 11:39:27;;;;;;;;;;;15.90;87.40;;;;;;5047154;28;20427;-58
2023/05/18 11:42:04;;;;;;;;;;;16.00;87.90;;;;;;5049153;28;20003;-57
2023/05/18 11:44:31;;;;;;;;;;;16.00;88.90;;;;;;5043050;28;20011;-57
2023/05/18 11:46:57;;;;;;;;;;;16.00;86.60;;;;;;5048166;28;20396;-58
2023/05/18 11:49:24;;;;;;;;;;;16.00;85.80;;;;;;5044332;28;19921;-56
2023/05/18 11:52:05;;;;;;;;;;;16.00;87.00;;;;;;5046515;28;19917;-57
2023/05/18 11:54:36;;;;;;;;;;;15.90;82.10;;;;;;5047509;28;19917;-57
2023/05/18 11:57:02;;;;;;;;;;;15.90;84.30;;;;;;5049324;28;19997;-58
2023/05/18 11:59:37;;;;;;;;;;;16.00;86.20;;;;;;5050002;28;19964;-58
2023/05/18 12:02:04;;;;;;;;;;;16.00;84.90;;;;;;5050490;28;19999;-59
2023/05/18 12:04:31;;;;;;;;;;;16.10;85.90;;;;;;5051040;28;20125;-58
2023/05/18 12:06:57;;;;;;;;;;;16.10;84.00;;;;;;5050252;28;19917;-58
2023/05/18 12:09:23;;;;;;;;;;;16.10;84.30;;;;;;5049525;28;19981;-58
2023/05/18 12:11:49;;;;;;;;;;;16.10;83.90;;;;;;5051381;28;19917;-57
2023/05/18 12:14:15;;;;;;;;;;;16.10;83.90;;;;;;5051569;28;19925;-57
2023/05/18 12:16:41;;;;;;;;;;;16.00;81.80;;;;;;5049913;28;19946;-59
2023/05/18 12:19:07;;;;;;;;;;;16.00;83.80;;;;;;5049964;28;19916;-57
2023/05/18 12:21:35;;;;;;;;;;;16.00;83.90;;;;;;5048384;28;19921;-58
2023/05/18 12:24:01;;;;;;;;;;;16.00;82.20;;;;;;5051248;28;20358;-59
2023/05/18 12:26:27;;;;;;;;;;;16.10;83.30;;;;;;5050161;28;19932;-58
2023/05/18 12:28:56;;;;;;;;;;;16.10;82.10;;;;;;5050769;28;19924;-59
2023/05/18 12:31:22;;;;;;;;;;;16.20;83.00;;;;;;5051728;28;20398;-57
2023/05/18 12:33:47;;;;;;;;;;;16.40;83.90;;;;;;5049391;28;19992;-59
2023/05/18 12:36:13;;;;;;;;;;;16.40;83.80;;;;;;5050471;28;20018;-59
2023/05/18 12:38:39;;;;;;;;;;;16.60;83.40;;;;;;5050712;28;19932;-54
2023/05/18 12:41:05;;;;;;;;;;;16.70;83.30;;;;;;5052326;28;20351;-53
2023/05/18 12:43:37;;;;;;;;;;;16.80;83.50;;;;;;5052075;28;20011;-58
2023/05/18 12:46:03;;;;;;;;;;;16.90;83.40;;;;;;5051484;28;19924;-55
2023/05/18 12:48:34;;;;;;;;;;;16.90;83.30;;;;;;5050871;28;19917;-57
2023/05/18 12:51:00;;;;;;;;;;;16.90;83.20;;;;;;5051906;28;19917;-58
2023/05/18 12:53:25;;;;;;;;;;;17.00;83.20;;;;;;5051048;28;19924;-55
2023/05/18 12:55:55;;;;;;;;;;;17.10;82.60;;;;;;5050497;28;19920;-59
2023/05/18 12:58:21;;;;;;;;;;;17.20;81.70;;;;;;5050419;28;19928;-59
2023/05/18 13:00:47;;;;;;;;;;;17.20;81.10;;;;;;5051801;28;19923;-59
2023/05/18 13:03:16;;;;;;;;;;;17.10;80.40;;;;;;5051106;28;19924;-59
2023/05/18 13:05:43;;;;;;;;;;;17.10;80.70;;;;;;5049588;28;20349;-56
2023/05/18 13:08:12;;;;;;;;;;;17.10;80.50;;;;;;5047361;28;19998;-59
2023/05/18 13:10:38;;;;;;;;;;;17.20;80.10;;;;;;5050446;28;20341;-61
2023/05/18 13:13:03;;;;;;;;;;;17.00;80.60;;;;;;5051125;28;19917;-61
2023/05/18 13:15:35;;;;;;;;;;;17.10;79.90;;;;;;5050416;28;20018;-61
2023/05/18 13:18:02;;;;;;;;;;;17.20;79.70;;;;;;5050548;28;20306;-61
2023/05/18 13:20:49;;;;;;;;;;;17.20;81.30;;;;;;5051296;28;19917;-61
2023/05/18 13:23:16;;;;;;;;;;;17.20;80.40;;;;;;5050371;28;19917;-61
2023/05/18 13:25:42;;;;;;;;;;;17.30;80.00;;;;;;5048729;28;20360;-62
2023/05/18 13:28:12;;;;;;;;;;;17.20;80.10;;;;;;5049075;28;20035;-61
2023/05/18 13:30:38;;;;;;;;;;;17.20;79.00;;;;;;5052581;28;19921;-61
2023/05/18 13:33:04;;;;;;;;;;;17.30;80.90;;;;;;5052880;28;19917;-61
2023/05/18 13:35:30;;;;;;;;;;;17.20;78.70;;;;;;5051007;28;19923;-61
2023/05/18 13:37:55;;;;;;;;;;;17.20;79.50;;;;;;5048216;28;19925;-62
2023/05/18 13:40:23;;;;;;;;;;;17.30;79.50;;;;;;5050425;28;19928;-61
2023/05/18 13:42:49;;;;;;;;;;;17.30;79.10;;;;;;5049839;28;20333;-61
2023/05/18 13:45:15;;;;;;;;;;;17.40;79.20;;;;;;5050440;28;19921;-60
2023/05/18 13:47:40;;;;;;;;;;;17.40;79.00;;;;;;5050207;28;20034;-60
2023/05/18 13:50:06;;;;;;;;;;;17.40;78.70;;;;;;5050254;28;20271;-61
2023/05/18 13:52:32;;;;;;;;;;;17.50;79.30;;;;;;5048635;28;19923;-60
2023/05/18 13:54:58;;;;;;;;;;;17.60;77.80;;;;;;5049984;28;19917;-60
2023/05/18 13:57:25;;;;;;;;;;;17.60;79.10;;;;;;5053389;28;19920;-61
2023/05/18 13:59:53;;;;;;;;;;;17.70;79.30;;;;;;5054294;28;19929;-60
2023/05/18 14:02:19;;;;;;;;;;;17.70;79.00;;;;;;5049924;28;20008;-59
2023/05/18 14:04:44;;;;;;;;;;;17.70;79.80;;;;;;5048367;28;20036;-60
2023/05/18 14:07:11;;;;;;;;;;;17.70;78.10;;;;;;5049335;28;19916;-60
2023/05/18 14:09:36;;;;;;;;;;;17.70;78.40;;;;;;5044801;28;19916;-60
2023/05/18 14:12:04;;;;;;;;;;;17.60;77.80;;;;;;5049979;28;19931;-60
2023/05/18 14:14:29;;;;;;;;;;;17.50;77.80;;;;;;5050036;28;19923;-57
2023/05/18 14:16:55;;;;;;;;;;;17.50;78.30;;;;;;5049648;28;19924;-59
2023/05/18 14:19:21;;;;;;;;;;;17.60;77.40;;;;;;5048831;28;19924;-55
2023/05/18 14:21:46;;;;;;;;;;;17.50;76.90;;;;;;5049555;28;20431;-51